Portada
METAR-TAF:

METAR-TAF

Aeroports :

Aeroport d'Assuan

Assuan, Egipte

latitud: 23-58N, longitud: 032-47E, altitud: 200 m

Observació

L'informe es va fer fa 2 hores i 17 minuts, a les 04:00 UTC
Vent 4 kt del Nord
Temperatura 5°C
Humitat 52%
Pressió 1023 hPa
Visibilitat 10 km o més
sense núvols per sota de 1500 mi sense presència de cumulonimbus.

METAR: HESN 210400Z 35004KT CAVOK 05/M04 Q1023 NOSIG

Hora: 08:17 (06:17 UTC)

Pronòstic

L'informe es va fer fa 1 hora i 17 minuts, a les 05:00 UTC
Pronòstic vàlid del 21 a les 06 UTC al 22 a les 12 UTC
Vent 12 kt del Nord
Visibilitat 10 km o més
sense núvols per sota de 1500 mi sense presència de cumulonimbus.

TAF: HESN 210500Z 2106/2212 01012KT CAVOK

Observacions i pronòstics meteorològics de més de 4000 aeroports (METAR i TAF).

Les estacions disponibles són els punts grocs i vermells al mapa.

Posi el ratolí al punt desitjat per veure el nom de l'estació.

Feu clic per veure les observacions i els pronòstics meteorològics.

Per canviar el mapa: feu clic els botons verds amb una creu de color negre per apropar; al botó verd amb un guió per allunyar la imatge; o en les fletxes verdes per a mapes adjacents.


METAR-TAF: